sensor_id;sensor_type;location;lat;lon;timestamp;temperature;humidity
21403;DHT22;10862;51.886;17.078;2023-02-20T00:00:06;0.70;23.70
21403;DHT22;10862;51.886;17.078;2023-02-20T00:02:32;0.70;27.30
21403;DHT22;10862;51.886;17.078;2023-02-20T00:04:58;0.60;33.80
21403;DHT22;10862;51.886;17.078;2023-02-20T00:07:24;0.50;41.60
21403;DHT22;10862;51.886;17.078;2023-02-20T00:09:49;0.50;52.20
21403;DHT22;10862;51.886;17.078;2023-02-20T00:12:15;0.60;58.00
21403;DHT22;10862;51.886;17.078;2023-02-20T00:14:41;0.50;63.10
21403;DHT22;10862;51.886;17.078;2023-02-20T00:17:06;0.60;68.60
21403;DHT22;10862;51.886;17.078;2023-02-20T00:19:32;0.60;74.00
21403;DHT22;10862;51.886;17.078;2023-02-20T00:21:57;0.50;78.90
21403;DHT22;10862;51.886;17.078;2023-02-20T00:24:23;0.60;84.80
21403;DHT22;10862;51.886;17.078;2023-02-20T00:26:51;0.50;91.00
21403;DHT22;10862;51.886;17.078;2023-02-20T00:29:20;0.50;93.00
21403;DHT22;10862;51.886;17.078;2023-02-20T00:31:50;0.50;95.60
21403;DHT22;10862;51.886;17.078;2023-02-20T00:34:16;0.50;98.20
21403;DHT22;10862;51.886;17.078;2023-02-20T00:36:42;0.60;99.90
21403;DHT22;10862;51.886;17.078;2023-02-20T00:39:08;0.50;99.90
21403;DHT22;10862;51.886;17.078;2023-02-20T00:41:33;0.60;99.90
21403;DHT22;10862;51.886;17.078;2023-02-20T00:43:59;0.60;99.90
21403;DHT22;10862;51.886;17.078;2023-02-20T00:46:25;0.60;99.90
21403;DHT22;10862;51.886;17.078;2023-02-20T00:48:50;0.60;99.90
21403;DHT22;10862;51.886;17.078;2023-02-20T00:51:16;0.70;99.90
21403;DHT22;10862;51.886;17.078;2023-02-20T00:53:42;0.70;99.90
21403;DHT22;10862;51.886;17.078;2023-02-20T00:56:07;0.70;99.90
21403;DHT22;10862;51.886;17.078;2023-02-20T00:58:33;0.70;99.90
21403;DHT22;10862;51.886;17.078;2023-02-20T01:00:59;0.70;99.90
21403;DHT22;10862;51.886;17.078;2023-02-20T01:03:25;0.70;99.90
21403;DHT22;10862;51.886;17.078;2023-02-20T01:05:50;0.80;99.90
21403;DHT22;10862;51.886;17.078;2023-02-20T01:08:16;0.80;99.90
21403;DHT22;10862;51.886;17.078;2023-02-20T01:10:42;0.90;99.90
21403;DHT22;10862;51.886;17.078;2023-02-20T01:13:07;0.90;99.90
21403;DHT22;10862;51.886;17.078;2023-02-20T01:15:33;1.00;99.90
21403;DHT22;10862;51.886;17.078;2023-02-20T01:17:59;1.00;99.90
21403;DHT22;10862;51.886;17.078;2023-02-20T01:20:24;1.00;99.90
21403;DHT22;10862;51.886;17.078;2023-02-20T01:22:50;1.00;99.90
21403;DHT22;10862;51.886;17.078;2023-02-20T01:25:16;1.00;99.90
21403;DHT22;10862;51.886;17.078;2023-02-20T01:27:41;1.00;99.90
21403;DHT22;10862;51.886;17.078;2023-02-20T01:30:09;1.00;99.90
21403;DHT22;10862;51.886;17.078;2023-02-20T01:32:35;1.00;99.90
21403;DHT22;10862;51.886;17.078;2023-02-20T01:35:01;1.00;99.90
21403;DHT22;10862;51.886;17.078;2023-02-20T01:37:27;1.00;99.90
21403;DHT22;10862;51.886;17.078;2023-02-20T01:39:52;1.00;99.90
21403;DHT22;10862;51.886;17.078;2023-02-20T01:42:22;1.00;99.90
21403;DHT22;10862;51.886;17.078;2023-02-20T01:44:48;0.90;99.90
21403;DHT22;10862;51.886;17.078;2023-02-20T01:47:19;1.00;99.90
21403;DHT22;10862;51.886;17.078;2023-02-20T01:49:50;0.90;99.90
21403;DHT22;10862;51.886;17.078;2023-02-20T01:52:19;0.90;99.90
21403;DHT22;10862;51.886;17.078;2023-02-20T01:54:51;0.90;99.90
21403;DHT22;10862;51.886;17.078;2023-02-20T01:57:21;0.80;99.90
21403;DHT22;10862;51.886;17.078;2023-02-20T01:59:50;0.80;99.90
21403;DHT22;10862;51.886;17.078;2023-02-20T02:02:17;0.90;99.90
21403;DHT22;10862;51.886;17.078;2023-02-20T02:04:44;0.80;99.90
21403;DHT22;10862;51.886;17.078;2023-02-20T02:07:12;0.80;99.90
21403;DHT22;10862;51.886;17.078;2023-02-20T02:12:09;0.70;99.90
21403;DHT22;10862;51.886;17.078;2023-02-20T02:14:35;0.70;99.90
21403;DHT22;10862;51.886;17.078;2023-02-20T02:17:06;0.70;99.90
21403;DHT22;10862;51.886;17.078;2023-02-20T02:31:20;0.70;99.90
21403;DHT22;10862;51.886;17.078;2023-02-20T02:44:53;0.80;99.90
21403;DHT22;10862;51.886;17.078;2023-02-20T02:47:32;0.80;99.90
21403;DHT22;10862;51.886;17.078;2023-02-20T02:50:15;0.80;99.90
21403;DHT22;10862;51.886;17.078;2023-02-20T02:52:42;0.80;99.90
21403;DHT22;10862;51.886;17.078;2023-02-20T02:55:24;0.90;99.90
21403;DHT22;10862;51.886;17.078;2023-02-20T02:57:50;0.90;99.90
21403;DHT22;10862;51.886;17.078;2023-02-20T03:00:28;0.90;99.90
21403;DHT22;10862;51.886;17.078;2023-02-20T03:06:02;1.00;99.90
21403;DHT22;10862;51.886;17.078;2023-02-20T03:08:35;0.90;99.90
21403;DHT22;10862;51.886;17.078;2023-02-20T03:11:12;1.00;99.90
21403;DHT22;10862;51.886;17.078;2023-02-20T03:13:43;1.00;99.90
21403;DHT22;10862;51.886;17.078;2023-02-20T03:16:59;1.00;99.90
21403;DHT22;10862;51.886;17.078;2023-02-20T03:20:09;1.00;99.90
21403;DHT22;10862;51.886;17.078;2023-02-20T03:22:38;1.00;99.90
21403;DHT22;10862;51.886;17.078;2023-02-20T03:25:35;1.10;99.90
21403;DHT22;10862;51.886;17.078;2023-02-20T03:28:00;1.10;99.90
21403;DHT22;10862;51.886;17.078;2023-02-20T03:36:38;1.10;99.90
21403;DHT22;10862;51.886;17.078;2023-02-20T03:39:29;1.20;99.90
21403;DHT22;10862;51.886;17.078;2023-02-20T03:42:16;1.20;99.90
21403;DHT22;10862;51.886;17.078;2023-02-20T03:45:02;1.20;99.90
21403;DHT22;10862;51.886;17.078;2023-02-20T03:47:30;1.30;99.90
21403;DHT22;10862;51.886;17.078;2023-02-20T03:49:59;1.20;99.90
21403;DHT22;10862;51.886;17.078;2023-02-20T03:52:26;1.30;99.90
21403;DHT22;10862;51.886;17.078;2023-02-20T03:54:52;1.30;99.90
21403;DHT22;10862;51.886;17.078;2023-02-20T03:57:26;1.40;99.90
21403;DHT22;10862;51.886;17.078;2023-02-20T04:00:13;1.30;99.90
21403;DHT22;10862;51.886;17.078;2023-02-20T04:02:43;1.30;99.90
21403;DHT22;10862;51.886;17.078;2023-02-20T04:05:19;1.30;99.90
21403;DHT22;10862;51.886;17.078;2023-02-20T04:08:03;1.40;99.90
21403;DHT22;10862;51.886;17.078;2023-02-20T04:10:47;1.30;99.90
21403;DHT22;10862;51.886;17.078;2023-02-20T04:13:16;1.40;99.90
21403;DHT22;10862;51.886;17.078;2023-02-20T04:15:43;1.30;99.90
21403;DHT22;10862;51.886;17.078;2023-02-20T04:18:11;1.40;99.90
21403;DHT22;10862;51.886;17.078;2023-02-20T04:20:38;1.40;99.90
21403;DHT22;10862;51.886;17.078;2023-02-20T04:23:09;1.40;99.90
21403;DHT22;10862;51.886;17.078;2023-02-20T04:25:50;1.40;99.90
21403;DHT22;10862;51.886;17.078;2023-02-20T04:28:18;1.40;99.90
21403;DHT22;10862;51.886;17.078;2023-02-20T04:30:45;1.40;99.90
21403;DHT22;10862;51.886;17.078;2023-02-20T04:33:12;1.50;99.90
21403;DHT22;10862;51.886;17.078;2023-02-20T04:35:38;1.50;99.90
21403;DHT22;10862;51.886;17.078;2023-02-20T04:38:04;1.50;99.90
21403;DHT22;10862;51.886;17.078;2023-02-20T04:40:30;1.50;99.90
21403;DHT22;10862;51.886;17.078;2023-02-20T04:42:56;1.50;99.90
21403;DHT22;10862;51.886;17.078;2023-02-20T04:45:22;1.50;99.90
21403;DHT22;10862;51.886;17.078;2023-02-20T04:47:47;1.50;99.90
21403;DHT22;10862;51.886;17.078;2023-02-20T04:52:47;1.60;99.90
21403;DHT22;10862;51.886;17.078;2023-02-20T04:55:12;1.50;99.90
21403;DHT22;10862;51.886;17.078;2023-02-20T04:57:38;1.60;99.90
21403;DHT22;10862;51.886;17.078;2023-02-20T05:00:05;1.60;99.90
21403;DHT22;10862;51.886;17.078;2023-02-20T05:02:33;1.60;99.90
21403;DHT22;10862;51.886;17.078;2023-02-20T05:04:59;1.60;99.90
21403;DHT22;10862;51.886;17.078;2023-02-20T05:07:25;1.60;99.90
21403;DHT22;10862;51.886;17.078;2023-02-20T05:09:50;1.60;99.90
21403;DHT22;10862;51.886;17.078;2023-02-20T05:12:16;1.60;99.90
21403;DHT22;10862;51.886;17.078;2023-02-20T05:14:42;1.70;99.90
21403;DHT22;10862;51.886;17.078;2023-02-20T05:17:07;1.70;99.90
21403;DHT22;10862;51.886;17.078;2023-02-20T05:19:33;1.70;99.90
21403;DHT22;10862;51.886;17.078;2023-02-20T05:21:59;1.70;99.90
21403;DHT22;10862;51.886;17.078;2023-02-20T05:24:44;1.70;99.90
21403;DHT22;10862;51.886;17.078;2023-02-20T05:27:11;1.70;99.90
21403;DHT22;10862;51.886;17.078;2023-02-20T05:29:46;1.80;99.90
21403;DHT22;10862;51.886;17.078;2023-02-20T05:32:12;1.80;99.90
21403;DHT22;10862;51.886;17.078;2023-02-20T05:34:39;1.90;99.90
21403;DHT22;10862;51.886;17.078;2023-02-20T05:37:05;1.80;99.90
21403;DHT22;10862;51.886;17.078;2023-02-20T05:39:31;1.90;99.90
21403;DHT22;10862;51.886;17.078;2023-02-20T05:41:56;1.90;99.90
21403;DHT22;10862;51.886;17.078;2023-02-20T05:44:23;1.90;99.90
21403;DHT22;10862;51.886;17.078;2023-02-20T05:46:48;1.90;99.90
21403;DHT22;10862;51.886;17.078;2023-02-20T05:49:16;1.90;99.90
21403;DHT22;10862;51.886;17.078;2023-02-20T05:51:42;2.00;99.90
21403;DHT22;10862;51.886;17.078;2023-02-20T05:54:08;2.00;99.90
21403;DHT22;10862;51.886;17.078;2023-02-20T05:56:34;2.00;99.90
21403;DHT22;10862;51.886;17.078;2023-02-20T05:59:00;2.00;99.90
21403;DHT22;10862;51.886;17.078;2023-02-20T06:01:28;2.00;99.90
21403;DHT22;10862;51.886;17.078;2023-02-20T06:03:54;2.00;99.90
21403;DHT22;10862;51.886;17.078;2023-02-20T06:06:20;2.00;99.90
21403;DHT22;10862;51.886;17.078;2023-02-20T06:08:46;2.10;99.90
21403;DHT22;10862;51.886;17.078;2023-02-20T06:11:13;2.10;99.90
21403;DHT22;10862;51.886;17.078;2023-02-20T06:13:40;2.10;99.90
21403;DHT22;10862;51.886;17.078;2023-02-20T06:16:06;2.10;99.90
21403;DHT22;10862;51.886;17.078;2023-02-20T06:18:32;2.10;99.90
21403;DHT22;10862;51.886;17.078;2023-02-20T06:20:58;2.20;99.90
21403;DHT22;10862;51.886;17.078;2023-02-20T06:23:24;2.20;99.90
21403;DHT22;10862;51.886;17.078;2023-02-20T06:25:49;2.30;99.90
21403;DHT22;10862;51.886;17.078;2023-02-20T06:28:15;2.30;99.90
21403;DHT22;10862;51.886;17.078;2023-02-20T06:30:41;2.40;99.90
21403;DHT22;10862;51.886;17.078;2023-02-20T06:33:06;2.40;99.90
21403;DHT22;10862;51.886;17.078;2023-02-20T06:35:32;2.40;99.90
21403;DHT22;10862;51.886;17.078;2023-02-20T06:37:59;2.50;99.90
21403;DHT22;10862;51.886;17.078;2023-02-20T06:40:25;2.50;99.90
21403;DHT22;10862;51.886;17.078;2023-02-20T06:42:50;2.60;99.90
21403;DHT22;10862;51.886;17.078;2023-02-20T06:45:16;2.60;99.90
21403;DHT22;10862;51.886;17.078;2023-02-20T06:47:42;2.60;99.90
21403;DHT22;10862;51.886;17.078;2023-02-20T06:50:08;2.60;99.90
21403;DHT22;10862;51.886;17.078;2023-02-20T06:52:33;2.60;99.90
21403;DHT22;10862;51.886;17.078;2023-02-20T06:54:59;2.60;99.90
21403;DHT22;10862;51.886;17.078;2023-02-20T06:57:25;2.60;99.90
21403;DHT22;10862;51.886;17.078;2023-02-20T06:59:50;2.60;99.90
21403;DHT22;10862;51.886;17.078;2023-02-20T07:02:16;2.70;99.90
21403;DHT22;10862;51.886;17.078;2023-02-20T07:04:47;2.70;99.90
21403;DHT22;10862;51.886;17.078;2023-02-20T07:07:13;2.80;99.90
21403;DHT22;10862;51.886;17.078;2023-02-20T07:09:39;2.80;99.90
21403;DHT22;10862;51.886;17.078;2023-02-20T07:12:05;2.90;99.90
21403;DHT22;10862;51.886;17.078;2023-02-20T07:14:31;2.90;99.90
21403;DHT22;10862;51.886;17.078;2023-02-20T07:16:56;2.90;99.90
21403;DHT22;10862;51.886;17.078;2023-02-20T07:19:22;3.00;99.90
21403;DHT22;10862;51.886;17.078;2023-02-20T07:21:48;3.00;99.90
21403;DHT22;10862;51.886;17.078;2023-02-20T07:24:14;3.00;99.90
21403;DHT22;10862;51.886;17.078;2023-02-20T07:26:39;3.00;99.90
21403;DHT22;10862;51.886;17.078;2023-02-20T07:29:06;3.10;99.90
21403;DHT22;10862;51.886;17.078;2023-02-20T07:31:31;3.20;99.90
21403;DHT22;10862;51.886;17.078;2023-02-20T07:33:57;3.20;99.90
21403;DHT22;10862;51.886;17.078;2023-02-20T07:36:23;3.30;99.90
21403;DHT22;10862;51.886;17.078;2023-02-20T07:38:54;3.40;99.90
21403;DHT22;10862;51.886;17.078;2023-02-20T07:41:21;3.50;99.90
21403;DHT22;10862;51.886;17.078;2023-02-20T07:43:47;3.50;99.90
21403;DHT22;10862;51.886;17.078;2023-02-20T07:46:12;3.60;99.90
21403;DHT22;10862;51.886;17.078;2023-02-20T07:48:38;3.70;99.90
21403;DHT22;10862;51.886;17.078;2023-02-20T07:51:04;3.80;99.90
21403;DHT22;10862;51.886;17.078;2023-02-20T07:53:30;3.90;99.90
21403;DHT22;10862;51.886;17.078;2023-02-20T07:55:55;4.00;99.90
21403;DHT22;10862;51.886;17.078;2023-02-20T07:58:21;4.00;99.90
21403;DHT22;10862;51.886;17.078;2023-02-20T08:00:48;4.10;99.90
21403;DHT22;10862;51.886;17.078;2023-02-20T08:03:16;4.10;99.90
21403;DHT22;10862;51.886;17.078;2023-02-20T08:05:42;4.10;99.90
21403;DHT22;10862;51.886;17.078;2023-02-20T08:08:07;4.20;99.90
21403;DHT22;10862;51.886;17.078;2023-02-20T08:10:33;4.20;99.90
21403;DHT22;10862;51.886;17.078;2023-02-20T08:12:59;4.20;99.90
21403;DHT22;10862;51.886;17.078;2023-02-20T08:15:26;4.30;99.90
21403;DHT22;10862;51.886;17.078;2023-02-20T08:17:52;4.30;99.90
21403;DHT22;10862;51.886;17.078;2023-02-20T08:20:20;4.40;99.90
21403;DHT22;10862;51.886;17.078;2023-02-20T08:22:47;4.40;99.90
21403;DHT22;10862;51.886;17.078;2023-02-20T08:25:14;4.50;99.90
21403;DHT22;10862;51.886;17.078;2023-02-20T08:27:48;4.50;99.90
21403;DHT22;10862;51.886;17.078;2023-02-20T08:30:17;4.70;99.90
21403;DHT22;10862;51.886;17.078;2023-02-20T08:32:44;4.70;99.90
21403;DHT22;10862;51.886;17.078;2023-02-20T08:35:09;4.80;99.90
21403;DHT22;10862;51.886;17.078;2023-02-20T08:37:35;4.80;99.90
21403;DHT22;10862;51.886;17.078;2023-02-20T08:40:01;4.70;99.90
21403;DHT22;10862;51.886;17.078;2023-02-20T08:42:31;4.70;99.90
21403;DHT22;10862;51.886;17.078;2023-02-20T08:44:58;4.70;99.90
21403;DHT22;10862;51.886;17.078;2023-02-20T08:47:23;4.70;99.90
21403;DHT22;10862;51.886;17.078;2023-02-20T08:49:49;4.70;99.90
21403;DHT22;10862;51.886;17.078;2023-02-20T08:52:15;4.70;99.90
21403;DHT22;10862;51.886;17.078;2023-02-20T08:54:44;4.60;99.90
21403;DHT22;10862;51.886;17.078;2023-02-20T08:57:11;4.60;99.90
21403;DHT22;10862;51.886;17.078;2023-02-20T08:59:37;4.70;99.90
21403;DHT22;10862;51.886;17.078;2023-02-20T09:02:04;4.80;99.90
21403;DHT22;10862;51.886;17.078;2023-02-20T09:04:30;4.80;99.90
21403;DHT22;10862;51.886;17.078;2023-02-20T09:06:55;4.90;99.90
21403;DHT22;10862;51.886;17.078;2023-02-20T09:09:21;5.00;99.90
21403;DHT22;10862;51.886;17.078;2023-02-20T09:11:47;5.10;99.90
21403;DHT22;10862;51.886;17.078;2023-02-20T09:14:12;5.20;99.90
21403;DHT22;10862;51.886;17.078;2023-02-20T09:16:39;5.20;99.90
21403;DHT22;10862;51.886;17.078;2023-02-20T09:19:08;5.30;99.90
21403;DHT22;10862;51.886;17.078;2023-02-20T09:21:34;5.30;99.90
21403;DHT22;10862;51.886;17.078;2023-02-20T09:24:00;5.40;99.90
21403;DHT22;10862;51.886;17.078;2023-02-20T09:26:26;5.40;99.90
21403;DHT22;10862;51.886;17.078;2023-02-20T09:28:51;5.40;99.90
21403;DHT22;10862;51.886;17.078;2023-02-20T09:31:17;5.40;99.90
21403;DHT22;10862;51.886;17.078;2023-02-20T09:33:47;5.50;99.90
21403;DHT22;10862;51.886;17.078;2023-02-20T09:36:13;5.50;99.90
21403;DHT22;10862;51.886;17.078;2023-02-20T09:38:38;5.50;99.90
21403;DHT22;10862;51.886;17.078;2023-02-20T09:41:04;5.50;99.90
21403;DHT22;10862;51.886;17.078;2023-02-20T09:43:36;5.60;99.90
21403;DHT22;10862;51.886;17.078;2023-02-20T09:46:21;5.70;99.90
21403;DHT22;10862;51.886;17.078;2023-02-20T09:51:31;5.90;99.90
21403;DHT22;10862;51.886;17.078;2023-02-20T09:54:23;6.00;99.90
21403;DHT22;10862;51.886;17.078;2023-02-20T09:56:52;6.10;99.90
21403;DHT22;10862;51.886;17.078;2023-02-20T09:59:31;6.10;99.90
21403;DHT22;10862;51.886;17.078;2023-02-20T10:02:04;6.20;99.90
21403;DHT22;10862;51.886;17.078;2023-02-20T10:04:42;6.30;99.90
21403;DHT22;10862;51.886;17.078;2023-02-20T10:07:25;6.40;99.90
21403;DHT22;10862;51.886;17.078;2023-02-20T10:09:52;6.60;99.90
21403;DHT22;10862;51.886;17.078;2023-02-20T10:15:18;7.00;99.90
21403;DHT22;10862;51.886;17.078;2023-02-20T10:21:00;7.00;99.90
21403;DHT22;10862;51.886;17.078;2023-02-20T10:23:56;6.90;99.90
21403;DHT22;10862;51.886;17.078;2023-02-20T10:26:30;7.00;99.90
21403;DHT22;10862;51.886;17.078;2023-02-20T10:29:23;6.90;99.90
21403;DHT22;10862;51.886;17.078;2023-02-20T10:32:00;7.00;99.90
21403;DHT22;10862;51.886;17.078;2023-02-20T10:34:59;7.10;99.90
21403;DHT22;10862;51.886;17.078;2023-02-20T10:37:27;7.20;99.90
21403;DHT22;10862;51.886;17.078;2023-02-20T10:40:11;7.30;99.90
21403;DHT22;10862;51.886;17.078;2023-02-20T10:42:46;7.30;99.90
21403;DHT22;10862;51.886;17.078;2023-02-20T10:45:25;7.40;99.90
21403;DHT22;10862;51.886;17.078;2023-02-20T10:48:06;7.50;99.90
21403;DHT22;10862;51.886;17.078;2023-02-20T10:50:48;7.60;99.90
21403;DHT22;10862;51.886;17.078;2023-02-20T10:53:29;7.70;99.90
21403;DHT22;10862;51.886;17.078;2023-02-20T10:56:09;7.80;99.90
21403;DHT22;10862;51.886;17.078;2023-02-20T11:01:25;8.10;99.90
21403;DHT22;10862;51.886;17.078;2023-02-20T11:04:11;8.20;99.90
21403;DHT22;10862;51.886;17.078;2023-02-20T11:06:42;8.20;99.90
21403;DHT22;10862;51.886;17.078;2023-02-20T11:09:08;8.30;99.90
21403;DHT22;10862;51.886;17.078;2023-02-20T11:11:36;8.30;99.90
21403;DHT22;10862;51.886;17.078;2023-02-20T11:14:19;8.30;99.90
21403;DHT22;10862;51.886;17.078;2023-02-20T11:16:53;8.40;99.90
21403;DHT22;10862;51.886;17.078;2023-02-20T11:19:29;8.50;99.90
21403;DHT22;10862;51.886;17.078;2023-02-20T11:21:57;8.50;99.90
21403;DHT22;10862;51.886;17.078;2023-02-20T11:24:30;8.60;99.90
21403;DHT22;10862;51.886;17.078;2023-02-20T11:29:36;8.80;99.90
21403;DHT22;10862;51.886;17.078;2023-02-20T11:34:46;8.90;99.90
21403;DHT22;10862;51.886;17.078;2023-02-20T11:37:13;8.90;99.90
21403;DHT22;10862;51.886;17.078;2023-02-20T11:39:45;8.90;90.20
21403;DHT22;10862;51.886;17.078;2023-02-20T11:42:17;9.00;66.60
21403;DHT22;10862;51.886;17.078;2023-02-20T11:44:44;9.00;37.70
21403;DHT22;10862;51.886;17.078;2023-02-20T11:47:23;9.10;16.90
21403;DHT22;10862;51.886;17.078;2023-02-20T11:49:49;9.20;1.00
21403;DHT22;10862;51.886;17.078;2023-02-20T11:52:33;9.20;1.00
21403;DHT22;10862;51.886;17.078;2023-02-20T11:55:20;9.20;1.00
21403;DHT22;10862;51.886;17.078;2023-02-20T11:57:47;9.30;1.00
21403;DHT22;10862;51.886;17.078;2023-02-20T12:02:53;9.50;1.00
21403;DHT22;10862;51.886;17.078;2023-02-20T12:05:21;9.50;1.00
21403;DHT22;10862;51.886;17.078;2023-02-20T12:08:00;9.50;1.00
21403;DHT22;10862;51.886;17.078;2023-02-20T12:10:46;9.70;1.00
21403;DHT22;10862;51.886;17.078;2023-02-20T12:13:14;9.80;1.00
21403;DHT22;10862;51.886;17.078;2023-02-20T12:15:41;9.80;1.00
21403;DHT22;10862;51.886;17.078;2023-02-20T12:18:39;9.90;1.00
21403;DHT22;10862;51.886;17.078;2023-02-20T12:21:13;9.90;1.00
21403;DHT22;10862;51.886;17.078;2023-02-20T12:24:08;9.90;1.00
21403;DHT22;10862;51.886;17.078;2023-02-20T12:26:48;10.00;1.00
21403;DHT22;10862;51.886;17.078;2023-02-20T12:35:09;9.90;1.00
21403;DHT22;10862;51.886;17.078;2023-02-20T12:46:15;10.00;1.00
21403;DHT22;10862;51.886;17.078;2023-02-20T12:54:12;9.90;1.00
21403;DHT22;10862;51.886;17.078;2023-02-20T12:56:52;9.90;1.00
21403;DHT22;10862;51.886;17.078;2023-02-20T13:02:28;9.80;1.00
21403;DHT22;10862;51.886;17.078;2023-02-20T13:05:00;9.80;1.00
21403;DHT22;10862;51.886;17.078;2023-02-20T13:07:34;9.80;1.00
21403;DHT22;10862;51.886;17.078;2023-02-20T13:10:14;9.80;1.00
21403;DHT22;10862;51.886;17.078;2023-02-20T13:12:41;9.80;1.00
21403;DHT22;10862;51.886;17.078;2023-02-20T13:20:49;9.80;1.00
21403;DHT22;10862;51.886;17.078;2023-02-20T13:25:44;9.80;1.00
21403;DHT22;10862;51.886;17.078;2023-02-20T13:30:39;9.80;1.00
21403;DHT22;10862;51.886;17.078;2023-02-20T13:33:26;9.80;1.00
21403;DHT22;10862;51.886;17.078;2023-02-20T13:35:55;9.80;1.00
21403;DHT22;10862;51.886;17.078;2023-02-20T13:38:23;9.80;1.00
21403;DHT22;10862;51.886;17.078;2023-02-20T13:43:30;9.80;1.00
21403;DHT22;10862;51.886;17.078;2023-02-20T13:48:39;9.70;1.00
21403;DHT22;10862;51.886;17.078;2023-02-20T13:54:19;9.80;1.00
21403;DHT22;10862;51.886;17.078;2023-02-20T13:56:52;9.70;1.00
21403;DHT22;10862;51.886;17.078;2023-02-20T13:59:20;9.80;1.00
21403;DHT22;10862;51.886;17.078;2023-02-20T14:02:01;9.80;1.00
21403;DHT22;10862;51.886;17.078;2023-02-20T14:04:27;9.80;1.00
21403;DHT22;10862;51.886;17.078;2023-02-20T14:06:54;9.70;1.00
21403;DHT22;10862;51.886;17.078;2023-02-20T14:09:26;9.70;1.00
21403;DHT22;10862;51.886;17.078;2023-02-20T14:12:06;9.70;1.00
21403;DHT22;10862;51.886;17.078;2023-02-20T14:14:42;9.70;1.00
21403;DHT22;10862;51.886;17.078;2023-02-20T14:17:18;9.80;1.00
21403;DHT22;10862;51.886;17.078;2023-02-20T14:19:59;9.70;1.00
21403;DHT22;10862;51.886;17.078;2023-02-20T14:22:32;9.70;1.00
21403;DHT22;10862;51.886;17.078;2023-02-20T14:25:14;9.70;1.00
21403;DHT22;10862;51.886;17.078;2023-02-20T14:27:42;9.80;1.00
21403;DHT22;10862;51.886;17.078;2023-02-20T14:30:13;9.70;1.00
21403;DHT22;10862;51.886;17.078;2023-02-20T14:32:57;9.70;1.00
21403;DHT22;10862;51.886;17.078;2023-02-20T14:38:29;9.70;1.00
21403;DHT22;10862;51.886;17.078;2023-02-20T14:40:57;9.70;1.00
21403;DHT22;10862;51.886;17.078;2023-02-20T14:43:25;9.70;1.00
21403;DHT22;10862;51.886;17.078;2023-02-20T14:46:01;9.70;1.00
21403;DHT22;10862;51.886;17.078;2023-02-20T14:48:33;9.70;1.00
21403;DHT22;10862;51.886;17.078;2023-02-20T14:51:14;9.80;1.00
21403;DHT22;10862;51.886;17.078;2023-02-20T14:53:42;9.80;1.00
21403;DHT22;10862;51.886;17.078;2023-02-20T14:56:16;9.80;1.00
21403;DHT22;10862;51.886;17.078;2023-02-20T14:58:44;9.80;1.00
21403;DHT22;10862;51.886;17.078;2023-02-20T15:04:00;9.80;1.00
21403;DHT22;10862;51.886;17.078;2023-02-20T15:06:28;9.70;1.00
21403;DHT22;10862;51.886;17.078;2023-02-20T15:08:56;9.80;1.00
21403;DHT22;10862;51.886;17.078;2023-02-20T15:11:22;9.80;1.00
21403;DHT22;10862;51.886;17.078;2023-02-20T15:13:49;9.80;1.00
21403;DHT22;10862;51.886;17.078;2023-02-20T15:16:29;9.70;1.00
21403;DHT22;10862;51.886;17.078;2023-02-20T15:18:56;9.80;1.00
21403;DHT22;10862;51.886;17.078;2023-02-20T15:26:50;9.70;1.00
21403;DHT22;10862;51.886;17.078;2023-02-20T15:29:26;9.80;1.00
21403;DHT22;10862;51.886;17.078;2023-02-20T15:32:04;9.80;1.00
21403;DHT22;10862;51.886;17.078;2023-02-20T15:34:35;9.80;1.00
21403;DHT22;10862;51.886;17.078;2023-02-20T15:37:25;9.80;1.00
21403;DHT22;10862;51.886;17.078;2023-02-20T15:39:52;9.80;1.00
21403;DHT22;10862;51.886;17.078;2023-02-20T15:42:21;9.80;1.00
21403;DHT22;10862;51.886;17.078;2023-02-20T15:44:48;9.80;1.00
21403;DHT22;10862;51.886;17.078;2023-02-20T15:47:14;9.90;1.00
21403;DHT22;10862;51.886;17.078;2023-02-20T15:49:39;9.90;1.00
21403;DHT22;10862;51.886;17.078;2023-02-20T15:52:08;9.90;1.00
21403;DHT22;10862;51.886;17.078;2023-02-20T15:54:35;9.80;1.00
21403;DHT22;10862;51.886;17.078;2023-02-20T15:57:01;9.90;1.00
21403;DHT22;10862;51.886;17.078;2023-02-20T15:59:26;9.80;1.00
21403;DHT22;10862;51.886;17.078;2023-02-20T16:01:52;9.90;1.00
21403;DHT22;10862;51.886;17.078;2023-02-20T16:04:18;9.90;1.00
21403;DHT22;10862;51.886;17.078;2023-02-20T16:06:44;9.90;1.00
21403;DHT22;10862;51.886;17.078;2023-02-20T16:09:10;9.80;1.00
21403;DHT22;10862;51.886;17.078;2023-02-20T16:11:41;9.90;1.00
21403;DHT22;10862;51.886;17.078;2023-02-20T16:14:08;9.90;1.00
21403;DHT22;10862;51.886;17.078;2023-02-20T16:16:36;9.90;1.00
21403;DHT22;10862;51.886;17.078;2023-02-20T16:19:05;9.90;1.00
21403;DHT22;10862;51.886;17.078;2023-02-20T16:21:34;9.90;1.00
21403;DHT22;10862;51.886;17.078;2023-02-20T16:24:00;9.90;1.00
21403;DHT22;10862;51.886;17.078;2023-02-20T16:26:27;9.90;1.00
21403;DHT22;10862;51.886;17.078;2023-02-20T16:28:58;9.80;1.00
21403;DHT22;10862;51.886;17.078;2023-02-20T16:34:23;9.80;1.00
21403;DHT22;10862;51.886;17.078;2023-02-20T16:36:49;9.80;1.00
21403;DHT22;10862;51.886;17.078;2023-02-20T16:39:16;9.80;1.00
21403;DHT22;10862;51.886;17.078;2023-02-20T16:41:42;9.80;1.00
21403;DHT22;10862;51.886;17.078;2023-02-20T16:44:33;9.80;1.00
21403;DHT22;10862;51.886;17.078;2023-02-20T16:46:59;9.70;1.00
21403;DHT22;10862;51.886;17.078;2023-02-20T16:49:25;9.70;1.00
21403;DHT22;10862;51.886;17.078;2023-02-20T16:51:51;9.70;1.00
21403;DHT22;10862;51.886;17.078;2023-02-20T16:54:26;9.70;1.00
21403;DHT22;10862;51.886;17.078;2023-02-20T16:56:52;9.70;1.00
21403;DHT22;10862;51.886;17.078;2023-02-20T16:59:18;9.70;1.00
21403;DHT22;10862;51.886;17.078;2023-02-20T17:01:46;9.80;1.00
21403;DHT22;10862;51.886;17.078;2023-02-20T17:04:12;9.70;1.00
21403;DHT22;10862;51.886;17.078;2023-02-20T17:06:40;9.70;1.00
21403;DHT22;10862;51.886;17.078;2023-02-20T17:09:05;9.70;1.00
21403;DHT22;10862;51.886;17.078;2023-02-20T17:11:31;9.60;1.00
21403;DHT22;10862;51.886;17.078;2023-02-20T17:13:57;9.70;1.00
21403;DHT22;10862;51.886;17.078;2023-02-20T17:16:22;9.70;1.00
21403;DHT22;10862;51.886;17.078;2023-02-20T17:18:48;9.70;1.00
21403;DHT22;10862;51.886;17.078;2023-02-20T17:21:14;9.60;1.00
21403;DHT22;10862;51.886;17.078;2023-02-20T17:23:40;9.60;1.00
21403;DHT22;10862;51.886;17.078;2023-02-20T17:26:07;9.70;1.00
21403;DHT22;10862;51.886;17.078;2023-02-20T17:28:33;9.80;1.00
21403;DHT22;10862;51.886;17.078;2023-02-20T17:31:01;9.70;1.00
21403;DHT22;10862;51.886;17.078;2023-02-20T17:33:26;9.70;1.00
21403;DHT22;10862;51.886;17.078;2023-02-20T17:35:52;9.80;1.00
21403;DHT22;10862;51.886;17.078;2023-02-20T17:38:18;9.70;1.00
21403;DHT22;10862;51.886;17.078;2023-02-20T17:40:44;9.80;1.00
21403;DHT22;10862;51.886;17.078;2023-02-20T17:43:10;9.80;1.00